sensor_id;sensor_type;location;lat;lon;timestamp;P1;durP1;ratioP1;P2;durP2;ratioP2
38693;SDS011;24447;43.460;25.744;2022-08-19T00:00:00;21.38;;;10.80;;
38693;SDS011;24447;43.460;25.744;2022-08-19T00:02:27;18.58;;;10.70;;
38693;SDS011;24447;43.460;25.744;2022-08-19T00:04:53;19.73;;;10.50;;
38693;SDS011;24447;43.460;25.744;2022-08-19T00:07:19;20.85;;;10.52;;
38693;SDS011;24447;43.460;25.744;2022-08-19T00:09:45;18.50;;;10.15;;
38693;SDS011;24447;43.460;25.744;2022-08-19T00:12:11;20.45;;;10.95;;
38693;SDS011;24447;43.460;25.744;2022-08-19T00:14:37;19.70;;;10.60;;
38693;SDS011;24447;43.460;25.744;2022-08-19T00:17:04;18.30;;;10.02;;
38693;SDS011;24447;43.460;25.744;2022-08-19T00:19:31;20.08;;;11.18;;
38693;SDS011;24447;43.460;25.744;2022-08-19T00:21:58;18.25;;;9.73;;
38693;SDS011;24447;43.460;25.744;2022-08-19T00:24:24;19.92;;;10.60;;
38693;SDS011;24447;43.460;25.744;2022-08-19T00:26:51;17.77;;;10.35;;
38693;SDS011;24447;43.460;25.744;2022-08-19T00:29:18;19.58;;;10.27;;
38693;SDS011;24447;43.460;25.744;2022-08-19T00:31:45;21.33;;;9.77;;
38693;SDS011;24447;43.460;25.744;2022-08-19T00:34:12;21.63;;;11.18;;
38693;SDS011;24447;43.460;25.744;2022-08-19T00:36:39;17.83;;;10.30;;
38693;SDS011;24447;43.460;25.744;2022-08-19T00:39:05;21.52;;;10.85;;
38693;SDS011;24447;43.460;25.744;2022-08-19T00:41:32;18.67;;;10.93;;
38693;SDS011;24447;43.460;25.744;2022-08-19T00:46:24;19.88;;;10.63;;
38693;SDS011;24447;43.460;25.744;2022-08-19T00:48:50;19.70;;;10.50;;
38693;SDS011;24447;43.460;25.744;2022-08-19T00:51:16;18.80;;;10.55;;
38693;SDS011;24447;43.460;25.744;2022-08-19T00:53:42;16.95;;;9.93;;
38693;SDS011;24447;43.460;25.744;2022-08-19T00:56:08;25.20;;;10.73;;
38693;SDS011;24447;43.460;25.744;2022-08-19T00:58:34;19.80;;;10.32;;
38693;SDS011;24447;43.460;25.744;2022-08-19T01:01:02;19.75;;;10.15;;
38693;SDS011;24447;43.460;25.744;2022-08-19T01:03:29;19.00;;;10.45;;
38693;SDS011;24447;43.460;25.744;2022-08-19T01:05:55;22.45;;;10.35;;
38693;SDS011;24447;43.460;25.744;2022-08-19T01:08:21;20.00;;;10.30;;
38693;SDS011;24447;43.460;25.744;2022-08-19T01:10:54;19.77;;;10.70;;
38693;SDS011;24447;43.460;25.744;2022-08-19T01:13:23;18.15;;;10.30;;
38693;SDS011;24447;43.460;25.744;2022-08-19T01:15:58;19.63;;;9.98;;
38693;SDS011;24447;43.460;25.744;2022-08-19T01:18:28;22.85;;;10.95;;
38693;SDS011;24447;43.460;25.744;2022-08-19T01:20:56;20.08;;;10.98;;
38693;SDS011;24447;43.460;25.744;2022-08-19T01:23:25;19.45;;;11.35;;
38693;SDS011;24447;43.460;25.744;2022-08-19T01:26:08;18.45;;;10.60;;
38693;SDS011;24447;43.460;25.744;2022-08-19T01:28:39;17.30;;;8.98;;
38693;SDS011;24447;43.460;25.744;2022-08-19T01:31:05;27.08;;;11.15;;
38693;SDS011;24447;43.460;25.744;2022-08-19T01:33:32;24.10;;;11.10;;
38693;SDS011;24447;43.460;25.744;2022-08-19T01:36:05;21.40;;;10.98;;
38693;SDS011;24447;43.460;25.744;2022-08-19T01:38:38;20.80;;;11.52;;
38693;SDS011;24447;43.460;25.744;2022-08-19T01:41:05;25.23;;;11.02;;
38693;SDS011;24447;43.460;25.744;2022-08-19T01:43:31;20.27;;;10.32;;
38693;SDS011;24447;43.460;25.744;2022-08-19T01:45:58;24.17;;;10.40;;
38693;SDS011;24447;43.460;25.744;2022-08-19T01:48:24;21.55;;;10.52;;
38693;SDS011;24447;43.460;25.744;2022-08-19T01:50:49;21.88;;;10.80;;
38693;SDS011;24447;43.460;25.744;2022-08-19T01:53:15;21.83;;;11.70;;
38693;SDS011;24447;43.460;25.744;2022-08-19T01:55:42;20.98;;;11.43;;
38693;SDS011;24447;43.460;25.744;2022-08-19T01:58:13;20.45;;;10.95;;
38693;SDS011;24447;43.460;25.744;2022-08-19T02:00:42;21.90;;;11.75;;
38693;SDS011;24447;43.460;25.744;2022-08-19T02:03:08;20.67;;;11.32;;
38693;SDS011;24447;43.460;25.744;2022-08-19T02:05:36;24.52;;;10.43;;
38693;SDS011;24447;43.460;25.744;2022-08-19T02:08:02;18.25;;;10.30;;
38693;SDS011;24447;43.460;25.744;2022-08-19T02:10:29;18.70;;;10.82;;
38693;SDS011;24447;43.460;25.744;2022-08-19T02:12:54;20.58;;;10.93;;
38693;SDS011;24447;43.460;25.744;2022-08-19T02:15:20;19.38;;;10.48;;
38693;SDS011;24447;43.460;25.744;2022-08-19T02:17:47;18.05;;;9.88;;
38693;SDS011;24447;43.460;25.744;2022-08-19T02:20:13;20.50;;;10.38;;
38693;SDS011;24447;43.460;25.744;2022-08-19T02:22:40;20.40;;;10.90;;
38693;SDS011;24447;43.460;25.744;2022-08-19T02:25:08;20.75;;;11.25;;
38693;SDS011;24447;43.460;25.744;2022-08-19T02:27:38;19.27;;;10.73;;
38693;SDS011;24447;43.460;25.744;2022-08-19T02:30:05;21.77;;;10.55;;
38693;SDS011;24447;43.460;25.744;2022-08-19T02:32:32;21.73;;;11.43;;
38693;SDS011;24447;43.460;25.744;2022-08-19T02:34:59;22.10;;;12.13;;
38693;SDS011;24447;43.460;25.744;2022-08-19T02:37:25;21.30;;;12.20;;
38693;SDS011;24447;43.460;25.744;2022-08-19T02:40:09;19.95;;;11.10;;
38693;SDS011;24447;43.460;25.744;2022-08-19T02:42:36;19.55;;;11.02;;
38693;SDS011;24447;43.460;25.744;2022-08-19T02:45:02;20.52;;;10.93;;
38693;SDS011;24447;43.460;25.744;2022-08-19T02:47:28;27.02;;;11.23;;
38693;SDS011;24447;43.460;25.744;2022-08-19T02:49:54;20.60;;;11.27;;
38693;SDS011;24447;43.460;25.744;2022-08-19T02:52:20;22.65;;;11.32;;
38693;SDS011;24447;43.460;25.744;2022-08-19T02:54:48;22.48;;;12.25;;
38693;SDS011;24447;43.460;25.744;2022-08-19T02:57:14;20.10;;;11.65;;
38693;SDS011;24447;43.460;25.744;2022-08-19T02:59:40;20.63;;;11.15;;
38693;SDS011;24447;43.460;25.744;2022-08-19T03:02:06;21.73;;;11.45;;
38693;SDS011;24447;43.460;25.744;2022-08-19T03:04:32;22.25;;;11.90;;
38693;SDS011;24447;43.460;25.744;2022-08-19T03:06:58;20.85;;;11.40;;
38693;SDS011;24447;43.460;25.744;2022-08-19T03:09:24;21.13;;;11.93;;
38693;SDS011;24447;43.460;25.744;2022-08-19T03:11:50;23.60;;;12.23;;
38693;SDS011;24447;43.460;25.744;2022-08-19T03:14:16;22.38;;;11.68;;
38693;SDS011;24447;43.460;25.744;2022-08-19T03:16:46;20.40;;;11.85;;
38693;SDS011;24447;43.460;25.744;2022-08-19T03:19:15;21.55;;;11.98;;
38693;SDS011;24447;43.460;25.744;2022-08-19T03:21:42;21.88;;;11.57;;
38693;SDS011;24447;43.460;25.744;2022-08-19T03:24:09;20.10;;;12.57;;
38693;SDS011;24447;43.460;25.744;2022-08-19T03:26:39;20.90;;;11.45;;
38693;SDS011;24447;43.460;25.744;2022-08-19T03:29:06;24.20;;;11.88;;
38693;SDS011;24447;43.460;25.744;2022-08-19T03:31:33;28.20;;;12.65;;
38693;SDS011;24447;43.460;25.744;2022-08-19T03:33:59;21.55;;;12.13;;
38693;SDS011;24447;43.460;25.744;2022-08-19T03:36:26;27.27;;;12.95;;
38693;SDS011;24447;43.460;25.744;2022-08-19T03:38:53;21.02;;;11.10;;
38693;SDS011;24447;43.460;25.744;2022-08-19T03:41:22;22.77;;;11.95;;
38693;SDS011;24447;43.460;25.744;2022-08-19T03:43:58;33.88;;;12.02;;
38693;SDS011;24447;43.460;25.744;2022-08-19T03:46:27;23.92;;;12.98;;
38693;SDS011;24447;43.460;25.744;2022-08-19T03:48:55;26.65;;;12.63;;
38693;SDS011;24447;43.460;25.744;2022-08-19T03:51:26;28.40;;;13.10;;
38693;SDS011;24447;43.460;25.744;2022-08-19T03:53:55;22.42;;;11.27;;
38693;SDS011;24447;43.460;25.744;2022-08-19T03:56:22;28.77;;;10.38;;
38693;SDS011;24447;43.460;25.744;2022-08-19T03:58:51;22.65;;;10.80;;
38693;SDS011;24447;43.460;25.744;2022-08-19T04:01:18;22.02;;;11.00;;
38693;SDS011;24447;43.460;25.744;2022-08-19T04:03:45;21.88;;;12.30;;
38693;SDS011;24447;43.460;25.744;2022-08-19T04:06:13;22.33;;;11.65;;
38693;SDS011;24447;43.460;25.744;2022-08-19T04:08:41;21.85;;;10.68;;
38693;SDS011;24447;43.460;25.744;2022-08-19T04:11:09;21.27;;;11.05;;
38693;SDS011;24447;43.460;25.744;2022-08-19T04:13:36;24.08;;;10.25;;
38693;SDS011;24447;43.460;25.744;2022-08-19T04:16:03;19.23;;;9.77;;
38693;SDS011;24447;43.460;25.744;2022-08-19T04:18:29;20.70;;;10.35;;
38693;SDS011;24447;43.460;25.744;2022-08-19T04:20:56;18.05;;;10.05;;
38693;SDS011;24447;43.460;25.744;2022-08-19T04:23:22;18.27;;;9.80;;
38693;SDS011;24447;43.460;25.744;2022-08-19T04:25:48;17.52;;;9.02;;
38693;SDS011;24447;43.460;25.744;2022-08-19T04:28:15;17.50;;;8.98;;
38693;SDS011;24447;43.460;25.744;2022-08-19T04:30:48;19.52;;;10.10;;
38693;SDS011;24447;43.460;25.744;2022-08-19T04:33:16;16.60;;;8.50;;
38693;SDS011;24447;43.460;25.744;2022-08-19T04:35:45;12.77;;;8.00;;
38693;SDS011;24447;43.460;25.744;2022-08-19T04:38:13;16.50;;;7.55;;
38693;SDS011;24447;43.460;25.744;2022-08-19T04:40:40;17.40;;;8.48;;
38693;SDS011;24447;43.460;25.744;2022-08-19T04:43:26;16.95;;;8.70;;
38693;SDS011;24447;43.460;25.744;2022-08-19T04:45:52;19.27;;;8.23;;
38693;SDS011;24447;43.460;25.744;2022-08-19T04:48:18;15.52;;;8.00;;
38693;SDS011;24447;43.460;25.744;2022-08-19T04:50:50;16.15;;;7.90;;
38693;SDS011;24447;43.460;25.744;2022-08-19T04:53:21;13.80;;;7.68;;
38693;SDS011;24447;43.460;25.744;2022-08-19T04:55:47;21.05;;;9.27;;
38693;SDS011;24447;43.460;25.744;2022-08-19T04:58:13;17.38;;;8.55;;
38693;SDS011;24447;43.460;25.744;2022-08-19T05:00:41;18.77;;;8.60;;
38693;SDS011;24447;43.460;25.744;2022-08-19T05:03:07;17.00;;;8.90;;
38693;SDS011;24447;43.460;25.744;2022-08-19T05:05:33;14.10;;;7.88;;
38693;SDS011;24447;43.460;25.744;2022-08-19T05:08:04;14.75;;;8.05;;
38693;SDS011;24447;43.460;25.744;2022-08-19T05:10:30;17.80;;;9.00;;
38693;SDS011;24447;43.460;25.744;2022-08-19T05:12:56;17.60;;;8.15;;
38693;SDS011;24447;43.460;25.744;2022-08-19T05:15:23;16.70;;;8.13;;
38693;SDS011;24447;43.460;25.744;2022-08-19T05:17:49;14.98;;;8.07;;
38693;SDS011;24447;43.460;25.744;2022-08-19T05:20:50;16.30;;;8.35;;
38693;SDS011;24447;43.460;25.744;2022-08-19T05:23:35;14.95;;;7.90;;
38693;SDS011;24447;43.460;25.744;2022-08-19T05:26:01;15.07;;;7.00;;
38693;SDS011;24447;43.460;25.744;2022-08-19T05:28:27;14.13;;;7.28;;
38693;SDS011;24447;43.460;25.744;2022-08-19T05:30:53;17.92;;;8.18;;
38693;SDS011;24447;43.460;25.744;2022-08-19T05:33:20;18.60;;;9.40;;
38693;SDS011;24447;43.460;25.744;2022-08-19T05:35:46;14.90;;;7.80;;
38693;SDS011;24447;43.460;25.744;2022-08-19T05:38:14;16.33;;;8.20;;
38693;SDS011;24447;43.460;25.744;2022-08-19T05:40:41;14.55;;;7.50;;
38693;SDS011;24447;43.460;25.744;2022-08-19T05:43:10;19.73;;;9.35;;
38693;SDS011;24447;43.460;25.744;2022-08-19T05:45:40;24.63;;;12.73;;
38693;SDS011;24447;43.460;25.744;2022-08-19T05:48:07;14.95;;;7.72;;
38693;SDS011;24447;43.460;25.744;2022-08-19T05:50:36;25.48;;;13.05;;
38693;SDS011;24447;43.460;25.744;2022-08-19T05:53:03;13.25;;;8.07;;
38693;SDS011;24447;43.460;25.744;2022-08-19T05:55:30;15.30;;;8.30;;
38693;SDS011;24447;43.460;25.744;2022-08-19T05:57:56;17.65;;;9.60;;
38693;SDS011;24447;43.460;25.744;2022-08-19T06:00:22;20.45;;;10.43;;
38693;SDS011;24447;43.460;25.744;2022-08-19T06:02:49;17.00;;;7.40;;
38693;SDS011;24447;43.460;25.744;2022-08-19T06:05:15;22.88;;;16.90;;
38693;SDS011;24447;43.460;25.744;2022-08-19T06:07:42;22.13;;;13.80;;
38693;SDS011;24447;43.460;25.744;2022-08-19T06:10:09;32.10;;;21.02;;
38693;SDS011;24447;43.460;25.744;2022-08-19T06:12:36;21.23;;;13.83;;
38693;SDS011;24447;43.460;25.744;2022-08-19T06:15:07;17.95;;;8.40;;
38693;SDS011;24447;43.460;25.744;2022-08-19T06:17:35;16.73;;;6.95;;
38693;SDS011;24447;43.460;25.744;2022-08-19T06:20:04;16.13;;;6.13;;
38693;SDS011;24447;43.460;25.744;2022-08-19T06:22:31;11.73;;;6.47;;
38693;SDS011;24447;43.460;25.744;2022-08-19T06:24:57;13.40;;;6.25;;
38693;SDS011;24447;43.460;25.744;2022-08-19T06:27:23;17.35;;;6.70;;
38693;SDS011;24447;43.460;25.744;2022-08-19T06:29:49;16.02;;;6.95;;
38693;SDS011;24447;43.460;25.744;2022-08-19T06:32:15;14.55;;;6.30;;
38693;SDS011;24447;43.460;25.744;2022-08-19T06:34:43;14.82;;;6.95;;
38693;SDS011;24447;43.460;25.744;2022-08-19T06:37:10;12.82;;;6.13;;
38693;SDS011;24447;43.460;25.744;2022-08-19T06:39:37;13.80;;;6.72;;
38693;SDS011;24447;43.460;25.744;2022-08-19T06:42:04;15.23;;;6.88;;
38693;SDS011;24447;43.460;25.744;2022-08-19T06:44:34;14.82;;;6.82;;
38693;SDS011;24447;43.460;25.744;2022-08-19T06:47:06;18.25;;;6.78;;
38693;SDS011;24447;43.460;25.744;2022-08-19T06:49:33;9.95;;;6.00;;
38693;SDS011;24447;43.460;25.744;2022-08-19T06:51:59;16.27;;;6.45;;
38693;SDS011;24447;43.460;25.744;2022-08-19T06:54:26;13.20;;;6.22;;
38693;SDS011;24447;43.460;25.744;2022-08-19T06:56:54;15.68;;;6.47;;
38693;SDS011;24447;43.460;25.744;2022-08-19T06:59:22;13.13;;;6.45;;
38693;SDS011;24447;43.460;25.744;2022-08-19T07:01:53;12.63;;;7.25;;
38693;SDS011;24447;43.460;25.744;2022-08-19T07:04:23;16.92;;;6.57;;
38693;SDS011;24447;43.460;25.744;2022-08-19T07:06:56;13.27;;;6.53;;
38693;SDS011;24447;43.460;25.744;2022-08-19T07:09:41;20.10;;;6.93;;
38693;SDS011;24447;43.460;25.744;2022-08-19T07:12:10;13.50;;;6.90;;
38693;SDS011;24447;43.460;25.744;2022-08-19T07:14:40;11.73;;;6.13;;
38693;SDS011;24447;43.460;25.744;2022-08-19T07:17:07;11.05;;;5.78;;
38693;SDS011;24447;43.460;25.744;2022-08-19T07:19:35;11.52;;;6.57;;
38693;SDS011;24447;43.460;25.744;2022-08-19T07:22:03;10.23;;;5.90;;
38693;SDS011;24447;43.460;25.744;2022-08-19T07:24:30;17.10;;;6.63;;
38693;SDS011;24447;43.460;25.744;2022-08-19T07:26:58;13.93;;;6.47;;
38693;SDS011;24447;43.460;25.744;2022-08-19T07:29:28;13.32;;;6.63;;
38693;SDS011;24447;43.460;25.744;2022-08-19T07:31:56;13.52;;;6.43;;
38693;SDS011;24447;43.460;25.744;2022-08-19T07:34:24;13.93;;;5.87;;
38693;SDS011;24447;43.460;25.744;2022-08-19T07:36:50;18.58;;;7.88;;
38693;SDS011;24447;43.460;25.744;2022-08-19T07:39:18;13.77;;;6.05;;
38693;SDS011;24447;43.460;25.744;2022-08-19T07:41:46;13.32;;;6.70;;
38693;SDS011;24447;43.460;25.744;2022-08-19T07:44:12;9.75;;;5.53;;
38693;SDS011;24447;43.460;25.744;2022-08-19T07:46:40;16.08;;;7.45;;
38693;SDS011;24447;43.460;25.744;2022-08-19T07:49:11;9.55;;;6.03;;
38693;SDS011;24447;43.460;25.744;2022-08-19T07:51:42;10.00;;;5.80;;
38693;SDS011;24447;43.460;25.744;2022-08-19T07:54:09;15.55;;;5.85;;
38693;SDS011;24447;43.460;25.744;2022-08-19T07:56:36;11.35;;;6.18;;
38693;SDS011;24447;43.460;25.744;2022-08-19T07:59:02;15.93;;;5.60;;
38693;SDS011;24447;43.460;25.744;2022-08-19T08:01:30;17.05;;;6.38;;
38693;SDS011;24447;43.460;25.744;2022-08-19T08:03:56;12.20;;;5.78;;
38693;SDS011;24447;43.460;25.744;2022-08-19T08:06:41;11.75;;;5.68;;
38693;SDS011;24447;43.460;25.744;2022-08-19T08:09:34;17.38;;;6.65;;
38693;SDS011;24447;43.460;25.744;2022-08-19T08:12:06;11.00;;;5.90;;
38693;SDS011;24447;43.460;25.744;2022-08-19T08:14:54;13.20;;;5.93;;
38693;SDS011;24447;43.460;25.744;2022-08-19T08:17:21;16.67;;;6.07;;
38693;SDS011;24447;43.460;25.744;2022-08-19T08:19:50;9.88;;;5.68;;
38693;SDS011;24447;43.460;25.744;2022-08-19T08:22:18;15.25;;;6.43;;
38693;SDS011;24447;43.460;25.744;2022-08-19T08:25:05;16.27;;;7.20;;
38693;SDS011;24447;43.460;25.744;2022-08-19T08:27:42;15.10;;;6.45;;
38693;SDS011;24447;43.460;25.744;2022-08-19T08:30:11;10.98;;;5.38;;
38693;SDS011;24447;43.460;25.744;2022-08-19T08:32:44;16.02;;;6.72;;
38693;SDS011;24447;43.460;25.744;2022-08-19T08:35:13;10.98;;;6.47;;
38693;SDS011;24447;43.460;25.744;2022-08-19T08:37:41;16.08;;;6.80;;
38693;SDS011;24447;43.460;25.744;2022-08-19T08:40:11;9.65;;;5.60;;
38693;SDS011;24447;43.460;25.744;2022-08-19T08:42:48;19.25;;;7.32;;
38693;SDS011;24447;43.460;25.744;2022-08-19T08:45:17;10.65;;;6.15;;
38693;SDS011;24447;43.460;25.744;2022-08-19T08:47:48;14.23;;;6.43;;
38693;SDS011;24447;43.460;25.744;2022-08-19T08:50:32;13.25;;;6.50;;
38693;SDS011;24447;43.460;25.744;2022-08-19T08:53:03;16.63;;;7.03;;
38693;SDS011;24447;43.460;25.744;2022-08-19T08:55:30;9.60;;;6.32;;
38693;SDS011;24447;43.460;25.744;2022-08-19T08:58:07;15.35;;;6.50;;
38693;SDS011;24447;43.460;25.744;2022-08-19T09:00:39;12.10;;;6.32;;
38693;SDS011;24447;43.460;25.744;2022-08-19T09:03:19;9.20;;;5.82;;
38693;SDS011;24447;43.460;25.744;2022-08-19T09:21:20;18.15;;;6.20;;
38693;SDS011;24447;43.460;25.744;2022-08-19T09:23:47;13.32;;;5.80;;
38693;SDS011;24447;43.460;25.744;2022-08-19T09:26:16;13.65;;;6.50;;
38693;SDS011;24447;43.460;25.744;2022-08-19T09:28:45;17.58;;;7.22;;
38693;SDS011;24447;43.460;25.744;2022-08-19T09:31:22;16.33;;;6.43;;
38693;SDS011;24447;43.460;25.744;2022-08-19T09:33:49;10.35;;;5.38;;
38693;SDS011;24447;43.460;25.744;2022-08-19T09:36:16;15.48;;;6.60;;
38693;SDS011;24447;43.460;25.744;2022-08-19T09:38:44;12.82;;;5.40;;
38693;SDS011;24447;43.460;25.744;2022-08-19T09:41:12;10.88;;;6.43;;
38693;SDS011;24447;43.460;25.744;2022-08-19T09:43:43;14.23;;;6.32;;
38693;SDS011;24447;43.460;25.744;2022-08-19T09:46:11;16.83;;;6.40;;
38693;SDS011;24447;43.460;25.744;2022-08-19T09:48:37;8.13;;;5.93;;
38693;SDS011;24447;43.460;25.744;2022-08-19T09:51:12;16.60;;;6.53;;
38693;SDS011;24447;43.460;25.744;2022-08-19T09:53:43;14.02;;;5.88;;
38693;SDS011;24447;43.460;25.744;2022-08-19T09:56:10;12.13;;;6.32;;
38693;SDS011;24447;43.460;25.744;2022-08-19T09:58:36;16.75;;;6.18;;
38693;SDS011;24447;43.460;25.744;2022-08-19T10:01:04;12.32;;;5.78;;
38693;SDS011;24447;43.460;25.744;2022-08-19T10:03:31;10.30;;;5.60;;
38693;SDS011;24447;43.460;25.744;2022-08-19T10:05:59;25.98;;;7.15;;
38693;SDS011;24447;43.460;25.744;2022-08-19T10:08:36;10.03;;;5.43;;
38693;SDS011;24447;43.460;25.744;2022-08-19T10:11:04;15.65;;;6.25;;
38693;SDS011;24447;43.460;25.744;2022-08-19T10:13:31;10.68;;;5.95;;
38693;SDS011;24447;43.460;25.744;2022-08-19T10:16:04;14.27;;;6.82;;
38693;SDS011;24447;43.460;25.744;2022-08-19T10:18:36;15.13;;;6.50;;
38693;SDS011;24447;43.460;25.744;2022-08-19T10:21:07;12.07;;;6.53;;
38693;SDS011;24447;43.460;25.744;2022-08-19T10:23:35;13.13;;;5.70;;
38693;SDS011;24447;43.460;25.744;2022-08-19T10:26:03;10.13;;;6.40;;
38693;SDS011;24447;43.460;25.744;2022-08-19T10:28:31;20.75;;;8.20;;
38693;SDS011;24447;43.460;25.744;2022-08-19T10:31:04;13.13;;;5.85;;
38693;SDS011;24447;43.460;25.744;2022-08-19T10:33:36;12.45;;;6.35;;
38693;SDS011;24447;43.460;25.744;2022-08-19T10:36:04;11.95;;;6.28;;
38693;SDS011;24447;43.460;25.744;2022-08-19T10:38:34;12.57;;;7.32;;
38693;SDS011;24447;43.460;25.744;2022-08-19T10:41:07;13.95;;;6.28;;
38693;SDS011;24447;43.460;25.744;2022-08-19T10:43:37;11.30;;;6.10;;
38693;SDS011;24447;43.460;25.744;2022-08-19T10:46:04;12.60;;;6.30;;
38693;SDS011;24447;43.460;25.744;2022-08-19T10:48:31;12.75;;;6.28;;
38693;SDS011;24447;43.460;25.744;2022-08-19T10:50:58;8.38;;;5.82;;
38693;SDS011;24447;43.460;25.744;2022-08-19T10:53:43;9.32;;;5.97;;
38693;SDS011;24447;43.460;25.744;2022-08-19T10:56:09;13.65;;;6.63;;
38693;SDS011;24447;43.460;25.744;2022-08-19T10:58:54;11.90;;;5.88;;
38693;SDS011;24447;43.460;25.744;2022-08-19T11:01:21;12.48;;;6.35;;
38693;SDS011;24447;43.460;25.744;2022-08-19T11:03:47;12.00;;;5.45;;
38693;SDS011;24447;43.460;25.744;2022-08-19T11:06:13;15.38;;;6.72;;
38693;SDS011;24447;43.460;25.744;2022-08-19T11:08:39;12.93;;;5.93;;
38693;SDS011;24447;43.460;25.744;2022-08-19T11:13:35;13.73;;;6.28;;
38693;SDS011;24447;43.460;25.744;2022-08-19T11:16:04;10.70;;;6.03;;
38693;SDS011;24447;43.460;25.744;2022-08-19T11:18:35;9.18;;;5.82;;
38693;SDS011;24447;43.460;25.744;2022-08-19T11:21:14;9.73;;;4.97;;
38693;SDS011;24447;43.460;25.744;2022-08-19T11:23:42;10.93;;;5.72;;
38693;SDS011;24447;43.460;25.744;2022-08-19T11:26:09;7.80;;;5.18;;
38693;SDS011;24447;43.460;25.744;2022-08-19T11:28:35;14.52;;;6.03;;
38693;SDS011;24447;43.460;25.744;2022-08-19T11:31:02;10.38;;;5.80;;
38693;SDS011;24447;43.460;25.744;2022-08-19T11:33:29;13.77;;;5.95;;
38693;SDS011;24447;43.460;25.744;2022-08-19T11:35:58;9.10;;;5.45;;
38693;SDS011;24447;43.460;25.744;2022-08-19T11:38:25;11.68;;;5.20;;
38693;SDS011;24447;43.460;25.744;2022-08-19T11:40:54;11.25;;;5.72;;
38693;SDS011;24447;43.460;25.744;2022-08-19T11:43:20;13.47;;;5.50;;
38693;SDS011;24447;43.460;25.744;2022-08-19T11:45:46;16.83;;;7.60;;
38693;SDS011;24447;43.460;25.744;2022-08-19T11:48:13;10.05;;;5.78;;
38693;SDS011;24447;43.460;25.744;2022-08-19T11:50:39;13.70;;;6.47;;
38693;SDS011;24447;43.460;25.744;2022-08-19T11:53:07;11.88;;;6.18;;
38693;SDS011;24447;43.460;25.744;2022-08-19T11:55:36;18.80;;;6.32;;
38693;SDS011;24447;43.460;25.744;2022-08-19T11:58:04;12.88;;;5.95;;
38693;SDS011;24447;43.460;25.744;2022-08-19T12:00:31;7.18;;;5.25;;
38693;SDS011;24447;43.460;25.744;2022-08-19T12:02:59;9.98;;;5.45;;
38693;SDS011;24447;43.460;25.744;2022-08-19T12:05:24;11.80;;;5.40;;
38693;SDS011;24447;43.460;25.744;2022-08-19T12:07:50;10.02;;;5.63;;
38693;SDS011;24447;43.460;25.744;2022-08-19T12:10:16;12.55;;;5.80;;
38693;SDS011;24447;43.460;25.744;2022-08-19T12:12:42;13.23;;;5.55;;
38693;SDS011;24447;43.460;25.744;2022-08-19T12:15:10;10.15;;;5.43;;
38693;SDS011;24447;43.460;25.744;2022-08-19T12:17:37;9.52;;;5.38;;
38693;SDS011;24447;43.460;25.744;2022-08-19T12:20:03;13.13;;;6.72;;
38693;SDS011;24447;43.460;25.744;2022-08-19T12:22:31;10.52;;;5.68;;
38693;SDS011;24447;43.460;25.744;2022-08-19T12:24:57;9.65;;;5.63;;
38693;SDS011;24447;43.460;25.744;2022-08-19T12:27:23;11.23;;;5.18;;
38693;SDS011;24447;43.460;25.744;2022-08-19T12:29:49;9.85;;;5.07;;
38693;SDS011;24447;43.460;25.744;2022-08-19T12:32:15;10.95;;;5.75;;
38693;SDS011;24447;43.460;25.744;2022-08-19T12:34:41;11.80;;;5.97;;
38693;SDS011;24447;43.460;25.744;2022-08-19T12:37:08;9.50;;;5.28;;
38693;SDS011;24447;43.460;25.744;2022-08-19T12:39:35;9.82;;;5.78;;
38693;SDS011;24447;43.460;25.744;2022-08-19T12:42:02;12.90;;;6.05;;
38693;SDS011;24447;43.460;25.744;2022-08-19T12:44:29;14.23;;;6.80;;
38693;SDS011;24447;43.460;25.744;2022-08-19T12:46:57;15.27;;;7.38;;
38693;SDS011;24447;43.460;25.744;2022-08-19T12:49:24;14.32;;;5.57;;
38693;SDS011;24447;43.460;25.744;2022-08-19T12:51:50;11.57;;;6.03;;
38693;SDS011;24447;43.460;25.744;2022-08-19T12:54:17;14.43;;;5.55;;
38693;SDS011;24447;43.460;25.744;2022-08-19T12:56:43;10.25;;;5.70;;
38693;SDS011;24447;43.460;25.744;2022-08-19T12:59:09;13.02;;;5.90;;
38693;SDS011;24447;43.460;25.744;2022-08-19T13:01:36;11.07;;;5.63;;
38693;SDS011;24447;43.460;25.744;2022-08-19T13:04:03;10.55;;;5.35;;
38693;SDS011;24447;43.460;25.744;2022-08-19T13:06:29;10.75;;;5.53;;
38693;SDS011;24447;43.460;25.744;2022-08-19T13:08:55;12.45;;;5.20;;
38693;SDS011;24447;43.460;25.744;2022-08-19T13:11:22;9.52;;;5.47;;
38693;SDS011;24447;43.460;25.744;2022-08-19T13:13:51;8.05;;;5.20;;
38693;SDS011;24447;43.460;25.744;2022-08-19T13:16:18;11.00;;;5.65;;
38693;SDS011;24447;43.460;25.744;2022-08-19T13:18:45;12.10;;;5.55;;
38693;SDS011;24447;43.460;25.744;2022-08-19T13:21:12;10.18;;;5.00;;
38693;SDS011;24447;43.460;25.744;2022-08-19T13:23:38;11.45;;;6.00;;
38693;SDS011;24447;43.460;25.744;2022-08-19T13:26:06;14.55;;;6.25;;
38693;SDS011;24447;43.460;25.744;2022-08-19T13:28:33;11.40;;;6.93;;
38693;SDS011;24447;43.460;25.744;2022-08-19T13:31:19;18.08;;;7.25;;
38693;SDS011;24447;43.460;25.744;2022-08-19T13:34:05;13.23;;;7.03;;
38693;SDS011;24447;43.460;25.744;2022-08-19T13:36:31;14.70;;;6.20;;
38693;SDS011;24447;43.460;25.744;2022-08-19T13:39:00;14.13;;;6.38;;
38693;SDS011;24447;43.460;25.744;2022-08-19T13:41:27;14.43;;;6.22;;
38693;SDS011;24447;43.460;25.744;2022-08-19T13:43:53;13.07;;;6.18;;
38693;SDS011;24447;43.460;25.744;2022-08-19T13:46:19;12.98;;;5.90;;
38693;SDS011;24447;43.460;25.744;2022-08-19T13:48:46;17.50;;;8.23;;
38693;SDS011;24447;43.460;25.744;2022-08-19T13:51:16;13.30;;;5.90;;
38693;SDS011;24447;43.460;25.744;2022-08-19T13:53:42;14.07;;;5.82;;
38693;SDS011;24447;43.460;25.744;2022-08-19T13:56:10;17.38;;;6.75;;
38693;SDS011;24447;43.460;25.744;2022-08-19T13:58:38;15.63;;;6.50;;
38693;SDS011;24447;43.460;25.744;2022-08-19T14:01:05;12.80;;;6.72;;
38693;SDS011;24447;43.460;25.744;2022-08-19T14:03:31;12.55;;;6.68;;
38693;SDS011;24447;43.460;25.744;2022-08-19T14:05:58;15.75;;;6.63;;
38693;SDS011;24447;43.460;25.744;2022-08-19T14:08:24;9.65;;;5.50;;
38693;SDS011;24447;43.460;25.744;2022-08-19T14:10:52;8.63;;;5.47;;
38693;SDS011;24447;43.460;25.744;2022-08-19T14:13:20;13.48;;;6.70;;
38693;SDS011;24447;43.460;25.744;2022-08-19T14:15:47;10.25;;;5.80;;
38693;SDS011;24447;43.460;25.744;2022-08-19T14:18:13;13.18;;;6.72;;
38693;SDS011;24447;43.460;25.744;2022-08-19T14:20:40;17.90;;;7.28;;
38693;SDS011;24447;43.460;25.744;2022-08-19T14:23:06;18.65;;;6.20;;
38693;SDS011;24447;43.460;25.744;2022-08-19T14:25:33;13.90;;;6.43;;
38693;SDS011;24447;43.460;25.744;2022-08-19T14:27:59;15.25;;;6.53;;
38693;SDS011;24447;43.460;25.744;2022-08-19T14:30:30;17.85;;;7.30;;
38693;SDS011;24447;43.460;25.744;2022-08-19T14:32:58;17.33;;;6.40;;
38693;SDS011;24447;43.460;25.744;2022-08-19T14:35:26;20.47;;;7.53;;
38693;SDS011;24447;43.460;25.744;2022-08-19T14:37:53;16.35;;;6.15;;
38693;SDS011;24447;43.460;25.744;2022-08-19T14:40:21;14.10;;;5.93;;
38693;SDS011;24447;43.460;25.744;2022-08-19T14:42:52;12.55;;;5.60;;
38693;SDS011;24447;43.460;25.744;2022-08-19T14:45:24;12.15;;;5.63;;